Time;durP1;ratioP1;P1;durP2;ratioP2;P2;SDS_P1;SDS_P2;PMS_P1;PMS_P2;Temp;Humidity;BMP_temperature;BMP_pressure;BME280_temperature;BME280_humidity;BME280_pressure;Samples;Min_cycle;Max_cycle;Signal;HPM_P1;HPM_P2
2022/08/18 00:00:13;;;;;;;0.37;0.37;;;18.20;99.90;;;;;;5051275;28;20640;-75
2022/08/18 00:02:41;;;;;;;0.30;0.30;;;18.20;99.90;;;;;;5051692;28;20268;-76
2022/08/18 00:05:08;;;;;;;0.30;0.30;;;18.20;99.90;;;;;;5051304;28;20178;-76
2022/08/18 00:07:34;;;;;;;0.40;0.40;;;18.20;99.90;;;;;;5052006;28;20187;-75
2022/08/18 00:10:01;;;;;;;0.37;0.37;;;18.20;99.90;;;;;;5051355;28;20224;-76
2022/08/18 00:12:39;;;;;;;0.30;0.30;;;18.20;99.90;;;;;;5051677;28;20576;-75
2022/08/18 00:15:08;;;;;;;0.40;0.40;;;18.20;99.90;;;;;;5051719;28;20222;-75
2022/08/18 00:17:35;;;;;;;0.40;0.40;;;18.10;99.90;;;;;;5051561;28;20639;-76
2022/08/18 00:20:03;;;;;;;0.40;0.40;;;18.20;99.90;;;;;;5051280;28;20206;-76
2022/08/18 00:22:28;;;;;;;0.30;0.30;;;18.10;99.90;;;;;;5051718;28;20199;-75
2022/08/18 00:24:56;;;;;;;0.37;0.37;;;18.20;99.90;;;;;;5051638;28;20183;-76
2022/08/18 00:27:27;;;;;;;0.30;0.30;;;18.10;99.90;;;;;;5051509;28;20640;-75
2022/08/18 00:29:54;;;;;;;0.30;0.30;;;18.10;99.90;;;;;;5051115;28;20252;-76
2022/08/18 00:32:23;;;;;;;0.40;0.40;;;18.10;99.90;;;;;;5051932;28;20175;-76
2022/08/18 00:34:49;;;;;;;0.30;0.30;;;18.00;99.90;;;;;;5051509;28;20215;-75
2022/08/18 00:37:15;;;;;;;0.27;0.27;;;18.10;99.90;;;;;;5051271;28;20191;-75
2022/08/18 00:39:41;;;;;;;0.37;0.37;;;18.10;99.90;;;;;;5050829;28;20187;-76
2022/08/18 00:42:20;;;;;;;0.30;0.30;;;18.10;99.90;;;;;;5051284;28;20250;-76
2022/08/18 00:44:46;;;;;;;0.30;0.30;;;18.10;99.90;;;;;;5050958;28;20179;-76
2022/08/18 00:47:11;;;;;;;0.30;0.30;;;18.20;99.90;;;;;;5052152;28;20175;-75
2022/08/18 00:49:40;;;;;;;0.30;0.30;;;18.20;99.90;;;;;;5068931;28;20828;-76
2022/08/18 00:52:07;;;;;;;0.40;0.40;;;18.10;99.90;;;;;;5067403;28;20167;-75
2022/08/18 00:54:34;;;;;;;0.40;0.40;;;18.20;99.90;;;;;;5071002;28;20301;-76
2022/08/18 00:57:05;;;;;;;0.40;0.40;;;18.20;99.90;;;;;;5071071;28;20174;-76
2022/08/18 00:59:46;;;;;;;0.30;0.30;;;18.20;99.90;;;;;;5070931;28;20209;-74
2022/08/18 01:02:24;;;;;;;0.40;0.40;;;18.10;99.90;;;;;;5071710;28;20175;-75
2022/08/18 01:05:20;;;;;;;0.37;0.37;;;17.80;99.90;;;;;;5071314;28;20178;-76
2022/08/18 01:07:47;;;;;;;0.40;0.40;;;17.90;99.90;;;;;;5070880;28;20186;-75
2022/08/18 01:10:15;;;;;;;0.30;0.30;;;17.90;99.90;;;;;;5070503;28;20175;-75
2022/08/18 01:12:46;;;;;;;0.40;0.40;;;18.00;99.90;;;;;;5070975;28;20225;-76
2022/08/18 01:15:15;;;;;;;0.37;0.37;;;18.10;99.90;;;;;;5070689;28;20695;-76
2022/08/18 01:23:21;;;;;;;0.30;0.30;;;18.00;99.90;;;;;;5075099;28;20725;-76
2022/08/18 01:26:02;;;;;;;0.40;0.40;;;18.00;99.90;;;;;;5060194;28;20206;-75
2022/08/18 01:28:32;;;;;;;0.40;0.40;;;17.90;99.90;;;;;;5054688;28;20175;-76
2022/08/18 01:30:59;;;;;;;0.30;0.30;;;18.00;99.90;;;;;;5054696;28;20175;-76
2022/08/18 01:33:31;;;;;;;0.30;0.30;;;18.00;99.90;;;;;;5054759;28;20214;-76
2022/08/18 01:36:11;;;;;;;0.30;0.30;;;17.90;99.90;;;;;;5054681;28;20175;-75
2022/08/18 01:38:37;;;;;;;0.30;0.30;;;17.80;99.90;;;;;;5054556;28;20229;-75
2022/08/18 01:41:04;;;;;;;0.40;0.40;;;17.60;99.90;;;;;;5053937;28;20182;-76
2022/08/18 01:43:29;;;;;;;0.40;0.40;;;17.60;99.90;;;;;;5054522;28;20199;-75
2022/08/18 01:45:59;;;;;;;0.30;0.30;;;17.50;99.90;;;;;;5054508;28;20317;-76
2022/08/18 01:48:24;;;;;;;0.30;0.30;;;17.60;99.90;;;;;;5054440;28;20320;-76
2022/08/18 01:50:52;;;;;;;0.30;0.30;;;17.60;99.90;;;;;;5053877;28;20198;-75
2022/08/18 01:53:18;;;;;;;0.40;0.40;;;17.60;99.90;;;;;;5054140;28;20211;-75
2022/08/18 01:55:44;;;;;;;0.40;0.40;;;17.70;99.90;;;;;;5054220;28;20181;-75
2022/08/18 01:58:10;;;;;;;0.30;0.30;;;17.70;99.90;;;;;;5054331;28;20183;-74
2022/08/18 02:00:35;;;;;;;0.30;0.30;;;17.60;99.90;;;;;;5053732;28;20179;-76
2022/08/18 02:03:07;;;;;;;0.30;0.30;;;17.60;99.90;;;;;;5054096;28;20202;-76
2022/08/18 02:05:38;;;;;;;0.40;0.40;;;17.70;99.90;;;;;;5054067;28;20305;-75
2022/08/18 02:08:04;;;;;;;0.30;0.30;;;17.70;99.90;;;;;;5054021;28;20678;-75
2022/08/18 02:10:30;;;;;;;0.40;0.40;;;17.60;99.90;;;;;;5053592;28;20346;-76
2022/08/18 02:12:56;;;;;;;0.37;0.37;;;17.60;99.90;;;;;;5055783;28;20203;-75
2022/08/18 02:15:22;;;;;;;0.40;0.40;;;17.60;99.90;;;;;;5073975;28;20236;-75
2022/08/18 02:17:47;;;;;;;0.30;0.30;;;17.70;99.90;;;;;;5073830;28;20219;-75
2022/08/18 02:20:16;;;;;;;0.30;0.30;;;17.60;99.90;;;;;;5073151;28;20272;-75
2022/08/18 02:22:43;;;;;;;0.30;0.30;;;17.50;99.90;;;;;;5073346;28;20269;-75
2022/08/18 02:25:10;;;;;;;0.40;0.40;;;17.60;99.90;;;;;;5053595;28;20640;-75
2022/08/18 02:27:35;;;;;;;0.30;0.30;;;17.50;99.90;;;;;;5060170;28;20174;-75
2022/08/18 02:30:05;;;;;;;0.40;0.40;;;17.60;99.90;;;;;;5073330;28;20193;-76
2022/08/18 02:32:31;;;;;;;0.30;0.30;;;17.50;99.90;;;;;;5073343;28;20225;-76
2022/08/18 02:34:57;;;;;;;0.43;0.43;;;17.50;99.90;;;;;;5073449;28;20236;-76
2022/08/18 02:37:23;;;;;;;0.40;0.40;;;17.50;99.90;;;;;;5065452;22;20753;-78
2022/08/18 02:39:48;;;;;;;0.33;0.33;;;17.60;99.90;;;;;;5022291;28;20279;-77
2022/08/18 02:42:15;;;;;;;0.30;0.30;;;17.60;99.90;;;;;;5040267;28;20248;-78
2022/08/18 02:44:40;;;;;;;0.33;0.33;;;17.50;99.90;;;;;;5053420;28;20601;-79
2022/08/18 02:47:06;;;;;;;0.30;0.30;;;17.50;99.90;;;;;;5042074;28;20267;-79
2022/08/18 02:49:32;;;;;;;0.40;0.40;;;17.50;99.90;;;;;;5034614;28;20183;-78
2022/08/18 02:51:57;;;;;;;0.30;0.30;;;17.60;99.90;;;;;;5033943;28;20289;-77
2022/08/18 02:54:24;;;;;;;0.50;0.50;;;17.50;99.90;;;;;;5033068;28;20316;-76
2022/08/18 02:56:51;;;;;;;0.40;0.40;;;17.50;99.90;;;;;;5032831;28;20656;-77
2022/08/18 02:59:26;;;;;;;0.30;0.30;;;17.50;99.90;;;;;;5032236;28;20261;-78
2022/08/18 03:01:53;;;;;;;0.40;0.40;;;17.50;99.90;;;;;;5032928;28;20186;-76
2022/08/18 03:04:25;;;;;;;0.40;0.40;;;17.60;99.90;;;;;;5008804;28;20196;-77
2022/08/18 03:06:51;;;;;;;0.30;0.30;;;17.60;99.90;;;;;;5012077;28;20280;-76
2022/08/18 03:09:17;;;;;;;0.30;0.30;;;17.50;99.90;;;;;;5012517;28;20183;-76
2022/08/18 03:11:44;;;;;;;0.30;0.30;;;17.50;99.90;;;;;;5013285;28;20176;-76
2022/08/18 03:14:10;;;;;;;0.30;0.30;;;17.60;99.90;;;;;;5013187;28;20270;-76
2022/08/18 03:16:40;;;;;;;0.40;0.40;;;17.60;99.90;;;;;;5022221;28;20271;-76
2022/08/18 03:19:06;;;;;;;0.47;0.47;;;17.60;99.90;;;;;;5032436;28;20183;-77
2022/08/18 03:21:36;;;;;;;0.30;0.30;;;17.60;99.90;;;;;;5033174;28;20553;-77
2022/08/18 03:24:03;;;;;;;0.30;0.30;;;17.60;99.90;;;;;;5028723;28;20192;-77
2022/08/18 03:26:30;;;;;;;0.30;0.30;;;17.50;99.90;;;;;;5012304;28;20173;-76
2022/08/18 03:28:57;;;;;;;0.40;0.40;;;17.40;99.90;;;;;;5012123;28;20193;-77
2022/08/18 03:31:25;;;;;;;0.30;0.30;;;17.40;99.90;;;;;;5012432;28;20187;-76
2022/08/18 03:33:52;;;;;;;0.30;0.30;;;17.40;99.90;;;;;;5012457;28;20315;-77
2022/08/18 03:36:21;;;;;;;0.30;0.30;;;17.50;99.90;;;;;;5012308;28;20173;-76
2022/08/18 03:38:48;;;;;;;0.30;0.30;;;17.50;99.90;;;;;;5021653;28;20183;-76
2022/08/18 03:41:16;;;;;;;0.30;0.30;;;17.50;99.90;;;;;;5032032;28;20648;-76
2022/08/18 03:43:42;;;;;;;0.30;0.30;;;17.50;99.90;;;;;;5015563;28;20207;-76
2022/08/18 03:46:11;;;;;;;0.30;0.30;;;17.50;99.90;;;;;;5012552;28;20596;-77
2022/08/18 03:48:39;;;;;;;0.30;0.30;;;17.40;99.90;;;;;;5012721;28;20188;-78
2022/08/18 03:51:09;;;;;;;0.40;0.40;;;17.40;99.90;;;;;;5012252;28;20181;-77
2022/08/18 03:53:36;;;;;;;0.30;0.30;;;17.30;99.90;;;;;;5012271;28;20584;-77
2022/08/18 03:56:14;;;;;;;0.40;0.40;;;17.40;99.90;;;;;;5012530;28;20185;-77
2022/08/18 03:58:46;;;;;;;0.40;0.40;;;17.20;99.90;;;;;;5012353;28;20708;-77
2022/08/18 04:01:15;;;;;;;0.30;0.30;;;17.10;99.90;;;;;;5012340;28;20275;-77
2022/08/18 04:03:42;;;;;;;0.30;0.30;;;17.10;99.90;;;;;;5012486;28;20200;-76
2022/08/18 04:06:14;;;;;;;0.40;0.40;;;17.00;99.90;;;;;;5012530;28;20187;-76
2022/08/18 04:08:39;;;;;;;0.40;0.40;;;17.00;99.90;;;;;;5012266;28;20191;-76
2022/08/18 04:11:05;;;;;;;0.33;0.33;;;16.90;99.90;;;;;;5011653;28;20260;-77
2022/08/18 04:13:35;;;;;;;0.40;0.40;;;16.90;99.90;;;;;;5012172;28;20283;-77
2022/08/18 04:16:01;;;;;;;0.30;0.30;;;16.90;99.90;;;;;;5012361;28;20239;-76
2022/08/18 04:18:27;;;;;;;0.40;0.40;;;16.70;99.90;;;;;;5012241;28;20177;-76
2022/08/18 04:20:53;;;;;;;0.30;0.30;;;16.80;99.90;;;;;;5011538;28;20633;-77
2022/08/18 04:23:18;;;;;;;0.30;0.30;;;16.80;99.90;;;;;;5011982;28;20251;-76
2022/08/18 04:25:44;;;;;;;0.40;0.40;;;16.70;99.90;;;;;;5011962;28;20184;-76
2022/08/18 04:28:09;;;;;;;0.20;0.20;;;16.80;99.90;;;;;;5012216;28;20186;-76
2022/08/18 04:30:36;;;;;;;0.30;0.30;;;16.80;99.90;;;;;;5011844;28;20176;-76
2022/08/18 04:33:04;;;;;;;0.30;0.30;;;16.90;99.90;;;;;;5011948;28;20196;-76
2022/08/18 04:35:29;;;;;;;0.30;0.30;;;16.90;99.90;;;;;;5012057;28;20208;-76
2022/08/18 04:37:55;;;;;;;0.40;0.40;;;16.90;99.90;;;;;;5011937;28;20676;-76
2022/08/18 04:40:20;;;;;;;0.40;0.40;;;17.00;99.90;;;;;;5011405;28;20176;-76
2022/08/18 04:42:46;;;;;;;0.33;0.33;;;17.00;99.90;;;;;;5011841;28;20193;-76
2022/08/18 04:45:12;;;;;;;0.40;0.40;;;17.00;99.90;;;;;;5011976;28;20184;-77
2022/08/18 04:47:40;;;;;;;0.30;0.30;;;17.00;99.90;;;;;;5011824;28;20176;-76
2022/08/18 04:50:07;;;;;;;0.20;0.20;;;17.10;99.90;;;;;;5012547;28;20215;-78
2022/08/18 04:55:17;;;;;;;0.30;0.30;;;17.10;99.90;;;;;;5015867;28;20596;-77
2022/08/18 04:57:42;;;;;;;0.30;0.30;;;17.20;99.90;;;;;;5016022;28;20173;-77
2022/08/18 05:00:12;;;;;;;0.30;0.30;;;17.30;99.90;;;;;;5015475;28;20611;-77
2022/08/18 05:02:37;;;;;;;0.30;0.30;;;17.30;99.90;;;;;;4997789;28;20674;-76
2022/08/18 05:05:04;;;;;;;0.30;0.30;;;17.50;99.90;;;;;;5015122;28;20183;-77
2022/08/18 05:07:30;;;;;;;0.30;0.30;;;17.60;99.90;;;;;;5015271;28;20230;-76
2022/08/18 05:09:56;;;;;;;0.30;0.30;;;17.70;99.90;;;;;;5032582;28;20258;-77
2022/08/18 05:12:21;;;;;;;0.30;0.30;;;17.60;99.90;;;;;;5011118;28;20204;-77
2022/08/18 05:14:47;;;;;;;0.30;0.30;;;17.60;99.90;;;;;;5015317;28;20237;-77
2022/08/18 05:17:14;;;;;;;0.30;0.30;;;17.60;99.90;;;;;;5015380;28;20168;-78
2022/08/18 05:19:42;;;;;;;0.30;0.30;;;17.60;99.90;;;;;;5014842;28;20196;-77
2022/08/18 05:22:09;;;;;;;0.30;0.30;;;17.90;99.90;;;;;;5015352;28;20187;-75
2022/08/18 05:24:35;;;;;;;0.30;0.30;;;17.90;99.90;;;;;;5021092;28;20182;-77
2022/08/18 05:27:02;;;;;;;0.30;0.30;;;17.90;99.90;;;;;;5014414;28;20579;-76
2022/08/18 05:29:35;;;;;;;0.30;0.30;;;17.90;99.90;;;;;;5014988;28;20185;-75
2022/08/18 05:32:03;;;;;;;0.33;0.33;;;18.10;99.90;;;;;;5014456;28;20185;-76
2022/08/18 05:34:29;;;;;;;0.43;0.43;;;18.00;99.90;;;;;;5014558;28;20196;-76
2022/08/18 05:37:23;;;;;;;0.30;0.30;;;18.10;99.90;;;;;;5015148;28;20208;-76
2022/08/18 05:39:57;;;;;;;0.37;0.37;;;18.20;99.90;;;;;;5012953;28;20185;-76
2022/08/18 05:42:27;;;;;;;0.30;0.30;;;18.30;99.90;;;;;;5015147;28;20662;-76
2022/08/18 05:44:54;;;;;;;0.30;0.30;;;18.50;99.90;;;;;;5015187;28;20183;-76
2022/08/18 05:47:26;;;;;;;0.30;0.30;;;18.60;99.90;;;;;;5013363;28;20599;-76
2022/08/18 05:49:53;;;;;;;0.30;0.30;;;18.60;99.90;;;;;;5014081;28;20277;-76
2022/08/18 05:52:32;;;;;;;0.30;0.30;;;18.60;99.90;;;;;;5014418;28;20185;-76
2022/08/18 05:58:08;;;;;;;0.30;0.30;;;18.50;99.90;;;;;;5001961;28;20192;-76
2022/08/18 06:00:35;;;;;;;0.27;0.27;;;18.50;99.90;;;;;;5014582;28;20603;-76
2022/08/18 06:03:16;;;;;;;0.30;0.30;;;18.50;99.90;;;;;;5029148;28;20281;-76
2022/08/18 06:06:00;;;;;;;0.30;0.30;;;18.50;99.90;;;;;;5032593;28;20192;-76
2022/08/18 06:08:51;;;;;;;0.40;0.40;;;18.60;99.90;;;;;;5016754;28;20172;-76
2022/08/18 06:11:17;;;;;;;0.30;0.30;;;18.80;99.90;;;;;;5014372;28;20642;-76
2022/08/18 06:13:43;;;;;;;0.30;0.30;;;18.80;99.90;;;;;;5014953;28;20205;-76
2022/08/18 06:16:34;;;;;;;0.30;0.30;;;18.80;99.90;;;;;;5013379;28;20187;-77
2022/08/18 06:19:15;;;;;;;0.40;0.40;;;18.70;99.90;;;;;;5008745;28;20593;-76
2022/08/18 06:22:14;;;;;;;0.40;0.40;;;18.60;99.90;;;;;;5015015;28;20185;-76
2022/08/18 06:24:54;;;;;;;0.30;0.30;;;18.50;99.90;;;;;;4986462;28;20654;-77
2022/08/18 06:27:39;;;;;;;0.30;0.30;;;18.70;99.90;;;;;;5010741;28;20653;-76
2022/08/18 06:30:13;;;;;;;0.40;0.40;;;18.70;99.90;;;;;;5013922;28;20184;-76
2022/08/18 06:32:51;;;;;;;0.30;0.30;;;19.00;99.90;;;;;;5014406;28;20200;-77
2022/08/18 06:35:26;;;;;;;0.30;0.30;;;19.30;99.90;;;;;;5014984;28;20212;-76
2022/08/18 06:40:47;;;;;;;0.40;0.40;;;19.50;99.90;;;;;;5014602;28;20198;-76
2022/08/18 06:43:15;;;;;;;0.30;0.30;;;19.80;99.90;;;;;;5016418;28;20308;-78
2022/08/18 06:45:44;;;;;;;0.30;0.30;;;19.90;99.90;;;;;;5011272;28;20181;-77
2022/08/18 06:48:13;;;;;;;0.30;0.30;;;19.90;99.90;;;;;;5016043;28;20185;-78
2022/08/18 06:50:52;;;;;;;0.30;0.30;;;19.90;99.90;;;;;;5013685;28;20176;-78
2022/08/18 06:53:18;;;;;;;0.30;0.30;;;19.80;99.90;;;;;;5014193;28;20200;-77
2022/08/18 06:55:47;;;;;;;0.40;0.40;;;19.60;99.90;;;;;;5014365;28;20168;-77
2022/08/18 06:58:18;;;;;;;0.40;0.40;;;19.40;99.90;;;;;;4996693;28;20187;-77
2022/08/18 07:00:57;;;;;;;0.30;0.30;;;19.30;99.90;;;;;;5011990;28;20598;-77
2022/08/18 07:03:53;;;;;;;0.30;0.30;;;19.10;99.90;;;;;;5012077;28;20193;-78
2022/08/18 07:06:19;;;;;;;0.30;0.30;;;19.30;99.90;;;;;;5006421;28;20184;-76
2022/08/18 07:08:47;;;;;;;0.30;0.30;;;19.40;99.90;;;;;;5013711;28;20176;-77
2022/08/18 07:11:29;;;;;;;0.30;0.30;;;19.20;99.90;;;;;;5012796;28;20638;-77
2022/08/18 07:13:58;;;;;;;0.30;0.30;;;19.40;99.90;;;;;;5011293;28;20465;-76
2022/08/18 07:16:30;;;;;;;0.30;0.30;;;19.60;99.90;;;;;;5012650;28;20177;-77
2022/08/18 07:19:29;;;;;;;0.40;0.40;;;19.70;99.90;;;;;;5012485;28;20645;-77
2022/08/18 07:22:08;;;;;;;0.30;0.30;;;19.50;99.90;;;;;;4999737;28;20197;-77
2022/08/18 07:24:40;;;;;;;0.33;0.33;;;19.50;99.90;;;;;;5014401;28;20500;-77
2022/08/18 07:27:11;;;;;;;0.30;0.30;;;19.50;99.90;;;;;;5014100;28;20204;-77
2022/08/18 07:29:56;;;;;;;0.40;0.40;;;19.40;99.90;;;;;;5013003;28;20179;-77
2022/08/18 07:32:24;;;;;;;0.33;0.33;;;19.30;99.90;;;;;;5014315;28;20664;-77
2022/08/18 07:34:57;;;;;;;0.30;0.30;;;19.20;99.90;;;;;;5018122;28;20204;-76
2022/08/18 07:37:28;;;;;;;0.30;0.30;;;19.30;99.90;;;;;;5012393;28;20188;-77
2022/08/18 07:40:00;;;;;;;0.30;0.30;;;19.20;99.90;;;;;;5020477;28;20284;-77
2022/08/18 07:42:25;;;;;;;0.30;0.30;;;19.10;99.90;;;;;;5033334;28;20203;-76
2022/08/18 07:45:16;;;;;;;0.30;0.30;;;19.10;99.90;;;;;;5031786;28;20177;-76
2022/08/18 07:48:14;;;;;;;0.30;0.30;;;19.10;99.90;;;;;;5027758;28;20702;-76
2022/08/18 07:50:46;;;;;;;0.30;0.30;;;19.10;99.90;;;;;;5006313;28;20176;-77
2022/08/18 07:53:48;;;;;;;0.30;0.30;;;19.10;99.90;;;;;;5029457;28;20200;-77
2022/08/18 07:56:42;;;;;;;0.30;0.30;;;19.30;99.90;;;;;;5013500;28;20172;-78
2022/08/18 07:59:11;;;;;;;0.30;0.30;;;19.30;99.90;;;;;;5013548;28;20177;-78
2022/08/18 08:02:13;;;;;;;0.30;0.30;;;19.20;99.90;;;;;;5019666;28;20219;-79
2022/08/18 08:05:19;;;;;;;0.30;0.30;;;19.10;99.90;;;;;;5015928;28;20383;-80
2022/08/18 08:07:58;;;;;;;0.30;0.30;;;19.10;99.90;;;;;;4989792;28;20199;-80
2022/08/18 08:10:50;;;;;;;0.30;0.30;;;19.20;99.90;;;;;;5015205;28;20175;-79
2022/08/18 08:13:36;;;;;;;0.30;0.30;;;19.20;99.90;;;;;;5012652;28;20243;-78
2022/08/18 08:16:22;;;;;;;0.30;0.30;;;19.20;99.90;;;;;;5014169;28;20187;-78
2022/08/18 08:18:59;;;;;;;0.40;0.40;;;19.30;99.90;;;;;;5014030;28;20540;-78
2022/08/18 08:21:30;;;;;;;0.30;0.30;;;19.40;99.90;;;;;;5016668;28;20218;-78
2022/08/18 08:24:17;;;;;;;0.30;0.30;;;19.50;99.90;;;;;;5012224;28;20195;-78
2022/08/18 08:26:55;;;;;;;0.30;0.30;;;19.50;99.90;;;;;;5016716;28;20526;-79
2022/08/18 08:29:42;;;;;;;0.40;0.40;;;19.60;99.90;;;;;;5017344;28;20180;-79
2022/08/18 08:32:18;;;;;;;0.40;0.40;;;19.80;99.90;;;;;;5021632;28;20659;-79
2022/08/18 08:35:04;;;;;;;0.30;0.30;;;19.80;99.90;;;;;;5020676;28;20214;-79
2022/08/18 08:37:46;;;;;;;0.30;0.30;;;20.10;99.90;;;;;;5026208;28;20259;-78
2022/08/18 08:40:19;;;;;;;0.40;0.40;;;20.30;99.90;;;;;;5137893;23;20258;-76
2022/08/18 08:42:51;;;;;;;0.30;0.30;;;20.40;75.80;;;;;;5049264;28;20628;-75
2022/08/18 08:45:34;;;;;;;0.40;0.40;;;20.60;56.60;;;;;;5050703;28;20183;-76
2022/08/18 08:48:28;;;;;;;0.30;0.30;;;20.70;35.80;;;;;;5043246;28;20636;-75
2022/08/18 08:51:10;;;;;;;0.30;0.30;;;20.90;1.00;;;;;;5034786;28;20182;-76
2022/08/18 08:53:46;;;;;;;0.30;0.30;;;20.90;1.00;;;;;;5050684;28;20198;-75
2022/08/18 08:56:15;;;;;;;0.30;0.30;;;21.00;1.00;;;;;;5050600;28;20182;-75
2022/08/18 08:58:51;;;;;;;0.30;0.30;;;21.60;1.00;;;;;;5049070;28;20186;-74
2022/08/18 09:01:35;;;;;;;0.30;0.30;;;21.80;1.00;;;;;;5050407;28;20206;-75
2022/08/18 09:04:26;;;;;;;0.30;0.30;;;22.40;1.00;;;;;;5049838;28;20727;-74
2022/08/18 09:07:30;;;;;;;0.40;0.40;;;22.90;1.00;;;;;;5041039;28;20185;-74
2022/08/18 09:09:56;;;;;;;0.40;0.40;;;22.80;99.90;;;;;;5035707;28;20182;-74
2022/08/18 09:12:43;;;;;;;0.20;0.20;;;23.60;1.00;;;;;;5050289;28;20432;-74
2022/08/18 09:15:38;;;;;;;0.40;0.40;;;23.80;3.30;;;;;;5050025;28;20203;-74
2022/08/18 09:18:33;;;;;;;0.40;0.40;;;23.50;99.90;;;;;;4993530;28;20193;-74
2022/08/18 09:21:24;;;;;;;0.40;0.40;;;23.40;1.00;;;;;;5043202;28;20262;-74
2022/08/18 09:23:54;;;;;;;0.57;0.57;;;23.50;99.90;;;;;;5050439;28;20199;-74
2022/08/18 09:26:39;;;;;;;0.50;0.50;;;23.20;1.00;;;;;;5046975;28;20199;-75
2022/08/18 09:29:22;;;;;;;0.60;0.60;;;23.30;99.90;;;;;;5043572;28;20660;-75
2022/08/18 09:32:08;;;;;;;0.40;0.40;;;24.20;1.00;;;;;;5050291;28;20210;-75
2022/08/18 09:35:01;;;;;;;0.50;0.50;;;24.70;1.00;;;;;;5049658;28;20310;-74
2022/08/18 09:43:38;;;;;;;0.50;0.50;;;25.90;99.90;;;;;;5053477;28;20209;-73
2022/08/18 09:46:06;;;;;;;0.50;0.50;;;26.60;1.00;;;;;;5053103;28;20175;-74
2022/08/18 09:48:40;;;;;;;0.53;0.53;;;26.60;1.00;;;;;;5053287;28;20195;-75
2022/08/18 09:51:14;;;;;;;0.60;0.60;;;26.00;1.00;;;;;;5050454;28;20229;-74
2022/08/18 09:53:46;;;;;;;0.60;0.60;;;26.40;1.00;;;;;;5052507;28;20206;-74
2022/08/18 09:56:36;;;;;;;0.63;0.63;;;26.50;1.00;;;;;;5051287;28;20266;-74
2022/08/18 09:59:03;;;;;;;0.60;0.60;;;26.60;1.00;;;;;;5051728;28;20652;-74
2022/08/18 10:01:30;;;;;;;0.60;0.60;;;26.90;1.00;;;;;;5052805;28;20249;-74
2022/08/18 10:04:14;;;;;;;0.60;0.60;;;26.60;1.00;;;;;;5053087;28;20209;-74
2022/08/18 10:06:49;;;;;;;0.70;0.70;;;26.50;1.00;;;;;;5052119;28;20179;-74
2022/08/18 10:09:53;;;;;;;0.57;0.57;;;27.10;1.00;;;;;;5051270;28;20536;-74
2022/08/18 10:12:41;;;;;;;0.60;0.60;;;27.20;1.00;;;;;;5052560;28;20179;-74
2022/08/18 10:15:35;;;;;;;0.50;0.50;;;27.70;1.00;;;;;;5053651;28;20225;-77
2022/08/18 10:18:38;;;;;;;0.30;0.30;;;28.30;1.00;;;;;;5045811;28;20229;-75
2022/08/18 10:21:16;;;;;;;0.40;0.40;;;28.40;1.00;;;;;;5051224;28;20175;-75
2022/08/18 10:24:02;;;;;;;0.60;0.60;;;27.60;1.00;;;;;;5046238;28;20534;-76
2022/08/18 10:26:31;;;;;;;0.50;0.50;;;27.10;1.00;;;;;;5050751;28;20191;-75
2022/08/18 10:29:11;;;;;;;0.60;0.60;;;27.70;1.00;;;;;;5050485;28;20241;-76
2022/08/18 10:31:55;;;;;;;0.40;0.40;;;28.40;1.00;;;;;;5055248;28;20420;-75
2022/08/18 10:34:40;;;;;;;0.63;0.63;;;28.70;1.00;;;;;;5057260;28;20206;-75
2022/08/18 10:37:37;;;;;;;0.60;0.60;;;28.60;1.00;;;;;;5061708;28;20175;-74
2022/08/18 10:40:09;;;;;;;0.70;0.70;;;28.00;1.00;;;;;;5059469;28;20187;-76
2022/08/18 10:43:07;;;;;;;0.70;0.70;;;28.10;1.00;;;;;;5053808;28;20597;-77
2022/08/18 10:45:44;;;;;;;0.60;0.60;;;28.00;1.00;;;;;;5056081;28;20284;-75
2022/08/18 10:48:23;;;;;;;0.50;0.50;;;28.60;1.00;;;;;;5048262;28;20182;-74
2022/08/18 10:51:06;;;;;;;0.70;0.70;;;28.70;1.00;;;;;;5064262;28;20186;-74
2022/08/18 10:53:49;;;;;;;0.60;0.60;;;29.10;1.00;;;;;;5046791;28;20203;-74
2022/08/18 10:56:42;;;;;;;0.60;0.60;;;28.60;1.00;;;;;;5054075;28;20648;-75
2022/08/18 10:59:22;;;;;;;0.47;0.47;;;28.30;1.00;;;;;;5050198;28;20210;-75
2022/08/18 11:02:26;;;;;;;0.60;0.60;;;28.10;1.00;;;;;;5051521;28;20171;-76
2022/08/18 11:04:54;;;;;;;0.60;0.60;;;28.20;1.00;;;;;;5060716;28;20647;-75
2022/08/18 11:07:26;;;;;;;0.60;0.60;;;27.10;1.00;;;;;;5046519;28;20185;-75
2022/08/18 11:09:55;;;;;;;0.60;0.60;;;26.90;1.00;;;;;;5051317;28;20186;-75
2022/08/18 11:12:49;;;;;;;0.60;0.60;;;27.00;1.00;;;;;;5051994;28;20200;-76
2022/08/18 11:15:20;;;;;;;0.63;0.63;;;27.00;1.00;;;;;;5044128;28;20255;-75
2022/08/18 11:17:51;;;;;;;0.60;0.60;;;27.60;1.00;;;;;;5049739;28;20175;-75
2022/08/18 11:20:20;;;;;;;0.70;0.70;;;28.00;1.00;;;;;;5048974;28;20614;-76
2022/08/18 11:22:55;;;;;;;0.57;0.57;;;28.70;1.00;;;;;;5052880;28;20727;-75
2022/08/18 11:25:28;;;;;;;0.50;0.50;;;29.20;1.00;;;;;;5048925;28;20178;-74
2022/08/18 11:27:55;;;;;;;0.50;0.50;;;29.00;1.00;;;;;;5051149;28;20298;-74
2022/08/18 11:30:22;;;;;;;0.60;0.60;;;29.20;1.00;;;;;;5056442;28;20186;-75
2022/08/18 11:32:48;;;;;;;0.50;0.50;;;29.00;1.00;;;;;;5050793;28;20253;-76
2022/08/18 11:35:32;;;;;;;0.50;0.50;;;28.80;1.00;;;;;;5051842;28;20218;-77
2022/08/18 11:38:00;;;;;;;0.70;0.70;;;29.60;1.00;;;;;;5051689;28;20206;-77
2022/08/18 11:40:34;;;;;;;0.70;0.70;;;29.40;1.00;;;;;;5050313;28;20191;-77
2022/08/18 11:43:09;;;;;;;0.50;0.50;;;29.20;1.00;;;;;;5055661;28;20191;-77
2022/08/18 11:45:47;;;;;;;0.60;0.60;;;29.30;1.00;;;;;;5042128;28;20206;-77
2022/08/18 11:48:27;;;;;;;0.50;0.50;;;29.20;1.00;;;;;;5060254;28;20374;-77
2022/08/18 11:50:55;;;;;;;0.60;0.60;;;28.70;1.00;;;;;;5051910;28;20175;-77
2022/08/18 11:53:31;;;;;;;0.70;0.70;;;28.10;1.00;;;;;;5047601;28;20202;-77
2022/08/18 11:56:20;;;;;;;0.60;0.60;;;27.40;1.00;;;;;;5057341;28;20179;-79
2022/08/18 11:58:58;;;;;;;0.63;0.63;;;27.10;1.00;;;;;;5059187;28;20178;-81
2022/08/18 12:01:31;;;;;;;0.57;0.57;;;27.10;1.00;;;;;;5057251;28;20177;-79
2022/08/18 12:03:59;;;;;;;0.60;0.60;;;27.50;1.00;;;;;;5044558;28;20278;-75
2022/08/18 12:06:28;;;;;;;0.53;0.53;;;27.80;1.00;;;;;;5050481;28;20175;-76
2022/08/18 12:09:16;;;;;;;0.60;0.60;;;28.00;1.00;;;;;;5048293;28;20229;-75
2022/08/18 12:11:57;;;;;;;0.60;0.60;;;28.00;1.00;;;;;;5050196;28;20179;-75
2022/08/18 12:14:26;;;;;;;0.60;0.60;;;28.10;1.00;;;;;;5048333;28;20200;-74
2022/08/18 12:16:53;;;;;;;0.53;0.53;;;28.60;1.00;;;;;;5049778;28;20167;-75
2022/08/18 12:19:19;;;;;;;0.60;0.60;;;28.90;1.00;;;;;;5049468;28;20178;-75
2022/08/18 12:21:58;;;;;;;0.63;0.63;;;28.50;1.00;;;;;;5049050;28;20186;-74
2022/08/18 12:24:27;;;;;;;0.63;0.63;;;28.00;1.00;;;;;;5054611;28;20191;-75
2022/08/18 12:26:54;;;;;;;0.60;0.60;;;27.90;1.00;;;;;;5049967;28;20537;-76
2022/08/18 12:29:20;;;;;;;0.53;0.53;;;27.80;1.00;;;;;;5049849;28;20179;-75
2022/08/18 12:31:49;;;;;;;0.60;0.60;;;28.10;1.00;;;;;;5049323;28;20177;-75
2022/08/18 12:34:16;;;;;;;0.63;0.63;;;28.00;1.00;;;;;;5050650;28;20280;-74
2022/08/18 12:36:41;;;;;;;0.60;0.60;;;27.40;1.00;;;;;;5053027;28;20171;-74
2022/08/18 12:39:07;;;;;;;0.50;0.50;;;27.20;1.00;;;;;;5049835;28;20244;-75
2022/08/18 12:41:32;;;;;;;0.70;0.70;;;27.90;1.00;;;;;;5032492;28;20213;-72
2022/08/18 12:43:58;;;;;;;0.40;0.40;;;28.10;1.00;;;;;;5052593;28;20191;-73
2022/08/18 12:46:23;;;;;;;0.60;0.60;;;27.50;1.00;;;;;;5053923;28;20270;-74
2022/08/18 12:48:49;;;;;;;0.50;0.50;;;27.80;1.00;;;;;;5049930;28;20175;-74
2022/08/18 12:51:15;;;;;;;0.50;0.50;;;28.10;1.00;;;;;;5049600;28;20202;-75
2022/08/18 12:53:40;;;;;;;0.50;0.50;;;28.40;1.00;;;;;;5048207;28;20253;-73
2022/08/18 12:56:17;;;;;;;0.60;0.60;;;28.90;1.00;;;;;;5049724;28;20179;-72
2022/08/18 12:58:43;;;;;;;0.40;0.40;;;28.70;1.00;;;;;;5050122;28;20258;-72
2022/08/18 13:01:09;;;;;;;0.40;0.40;;;28.50;1.00;;;;;;5049198;28;20290;-74
2022/08/18 13:03:34;;;;;;;0.50;0.50;;;28.20;1.00;;;;;;5050452;28;20783;-75
2022/08/18 13:06:00;;;;;;;0.50;0.50;;;28.10;1.00;;;;;;5050384;28;20224;-75
2022/08/18 13:08:25;;;;;;;0.60;0.60;;;28.50;1.00;;;;;;5050426;28;20171;-74
2022/08/18 13:10:51;;;;;;;0.50;0.50;;;28.90;1.00;;;;;;5033951;28;20262;-75
2022/08/18 13:13:18;;;;;;;0.50;0.50;;;29.40;1.00;;;;;;5054740;28;20210;-73
2022/08/18 13:15:45;;;;;;;0.60;0.60;;;28.90;1.00;;;;;;5054327;28;20229;-74
2022/08/18 13:18:12;;;;;;;0.50;0.50;;;28.80;1.00;;;;;;5053805;28;20214;-73
2022/08/18 13:20:38;;;;;;;0.50;0.50;;;29.10;1.00;;;;;;5051460;28;20182;-72
2022/08/18 13:23:04;;;;;;;0.60;0.60;;;29.30;1.00;;;;;;5052558;28;20195;-72
2022/08/18 13:25:29;;;;;;;0.57;0.57;;;29.50;1.00;;;;;;5053293;28;20252;-74
2022/08/18 13:27:56;;;;;;;0.60;0.60;;;29.50;1.00;;;;;;5053163;28;20190;-73
2022/08/18 13:30:23;;;;;;;0.60;0.60;;;29.60;1.00;;;;;;5052300;28;20175;-73
2022/08/18 13:32:48;;;;;;;0.60;0.60;;;29.40;1.00;;;;;;5052899;28;20634;-73
2022/08/18 13:35:14;;;;;;;0.60;0.60;;;29.10;1.00;;;;;;5052501;28;20700;-72
2022/08/18 13:37:40;;;;;;;0.57;0.57;;;28.70;1.00;;;;;;5052686;28;20167;-72
2022/08/18 13:40:08;;;;;;;0.70;0.70;;;28.80;1.00;;;;;;5047971;28;20467;-74